Monday, October 15, 2018, 5:32 AM EDT
Back to Local

KIWI, Wiscasset Municipal Airport

Location: Wiscasset, ME, United States Lat: 43.967
Local Time: 5:32 AM EDT ( 9:32 GMT) Lon: -69.717
Time Zone: US/Eastern Elev: 68 ft

Show me the last for .
Show Decoded

2018-10-15 04:53 METAR KIWI 150853Z AUTO 00000KT 10SM FEW001 M01/M01 A3020 RMK AO2 SLP226 I3001
                 T10061006 58004 =
2018-10-15 04:43 METAR KIWI 150843Z AUTO 00000KT 10SM FEW001 00/00 A3020 RMK AO2 T00000000 =
2018-10-15 03:53 METAR KIWI 150753Z AUTO 00000KT 10SM CLR 00/00 A3022 RMK AO2 SLP232 I1001
                 T00000000 =
2018-10-15 03:18 METAR KIWI 150718Z AUTO 00000KT 10SM FEW001 01/00 A3020 RMK AO2 T00060000 =
2018-10-15 02:53 METAR KIWI 150653Z AUTO 00000KT 10SM BKN001 01/01 A3020 RMK AO2 SLP228 T00060006
                 =
2018-10-15 02:33 METAR KIWI 150633Z AUTO 00000KT 3SM BR OVC001 01/01 A3020 RMK AO2 T00060006 =
2018-10-15 02:23 METAR KIWI 150623Z AUTO 00000KT 1 3/4SM BR BKN001 01/01 A3021 RMK AO2 T00110006
                 =
2018-10-15 02:16 METAR KIWI 150616Z AUTO 00000KT 10SM BKN001 01/01 A3020 RMK AO2 T00060006 =
2018-10-15 02:08 METAR KIWI 150608Z AUTO 00000KT 10SM SCT001 01/01 A3021 RMK AO2 T00060006 =
2018-10-15 01:53 METAR KIWI 150553Z AUTO 00000KT 10SM CLR 01/01 A3021 RMK AO2 SLP230 I6000
                 T00060006 10044 20006 51002 =
2018-10-15 00:53 METAR KIWI 150453Z AUTO 00000KT 10SM CLR 01/01 A3021 RMK AO2 SLP230 I1000
                 T00110011 401281011 =
2018-10-14 23:53 METAR KIWI 150353Z AUTO 00000KT 10SM CLR 02/02 A3021 RMK AO2 SLP230 T00170017 =
2018-10-14 22:53 METAR KIWI 150253Z AUTO 00000KT 10SM CLR 02/02 A3020 RMK AO2 SLP228 T00220022
                 51008 =
2018-10-14 21:53 METAR KIWI 150153Z AUTO 00000KT 10SM CLR 03/03 A3020 RMK AO2 SLP225 T00280028 =
2018-10-14 20:53 METAR KIWI 150053Z AUTO 00000KT 10SM CLR 04/03 A3019 RMK AO2 SLP223 T00390033 =
2018-10-14 19:53 METAR KIWI 142353Z AUTO 00000KT 10SM CLR 04/04 A3018 RMK AO2 SLP219 T00440039
                 10128 20044 51012 =
2018-10-14 18:53 METAR KIWI 142253Z AUTO 00000KT 10SM CLR 06/04 A3017 RMK AO2 SLP216 T00560044 =
2018-10-14 17:53 METAR KIWI 142153Z AUTO 00000KT 10SM CLR 08/05 A3016 RMK AO2 SLP213 T00830050 =
2018-10-14 16:53 METAR KIWI 142053Z AUTO 21007KT 10SM CLR 11/03 A3014 RMK AO2 SLP207 T01110033
                 51006 =
2018-10-14 15:53 METAR KIWI 141953Z AUTO 20008KT 10SM CLR 12/02 A3014 RMK AO2 SLP206 T01220022 =
2018-10-14 14:53 METAR KIWI 141853Z AUTO 22008KT 10SM CLR 12/02 A3014 RMK AO2 SLP206 T01220022 =
2018-10-14 13:53 METAR KIWI 141753Z AUTO VRB05KT 10SM CLR 12/00 A3013 RMK AO2 SLP201 T01220000
                 10128 20011 56009 =
2018-10-14 12:53 METAR KIWI 141653Z AUTO 26007KT 240V300 10SM CLR 12/01 A3013 RMK AO2 SLP202
                 T01220006 =
2018-10-14 11:53 METAR KIWI 141553Z AUTO 10SM CLR 11/01 A3014 RMK AO2 SLP207 T01060006 =
2018-10-14 10:53 METAR KIWI 141453Z AUTO 32007KT 10SM CLR 10/01 A3015 RMK AO2 SLP211 T01000006
                 51006 =
2018-10-14 09:53 METAR KIWI 141353Z AUTO 10SM CLR 08/02 A3015 RMK AO2 SLP210 T00830022 =
2018-10-14 08:53 METAR KIWI 141253Z AUTO 00000KT 10SM CLR 06/04 A3016 RMK AO2 SLP213 T00610044 =
2018-10-14 07:53 METAR KIWI 141153Z AUTO 00000KT 10SM CLR 01/01 A3013 RMK AO2 SLP204 70016 I1000
                 I6003 T00110011 10011 21011 53020 =
2018-10-14 06:53 METAR KIWI 141053Z AUTO 00000KT 10SM CLR M01/M01 A3011 RMK AO2 SLP196 T10061006
                 =
2018-10-14 05:53 METAR KIWI 140953Z AUTO 00000KT 10SM CLR M01/M01 A3009 RMK AO2 SLP188 I1001
                 T10061006 =

Support USWX by starting your Amazon purchase here.